createdAt,value
2023-04-28T00:02:02.814Z,101651.91
2023-04-28T00:04:29.708Z,101657.41
2023-04-28T00:06:56.663Z,101648.88
2023-04-28T00:09:23.215Z,101653.06
2023-04-28T00:11:49.699Z,101657.59
2023-04-28T00:14:16.868Z,101598.66
2023-04-28T00:16:43.753Z,101654.38
2023-04-28T00:19:10.871Z,101651.81
2023-04-28T00:21:37.309Z,101640.97
2023-04-28T00:24:03.831Z,101643.34
2023-04-28T00:26:30.281Z,101653.19
2023-04-28T00:28:56.743Z,101619.50
2023-04-28T00:31:23.184Z,101645.69
2023-04-28T00:33:49.912Z,101599.69
2023-04-28T00:36:16.314Z,101639.19
2023-04-28T00:38:42.724Z,101633.47
2023-04-28T00:41:12.729Z,101631.06
2023-04-28T00:43:48.954Z,101624.31
2023-04-28T00:46:24.631Z,101625.75
2023-04-28T00:48:51.426Z,101600.38
2023-04-28T00:51:18.021Z,101612.69
2023-04-28T00:53:45.126Z,101606.13
2023-04-28T00:56:12.291Z,101606.53
2023-04-28T00:58:39.546Z,101582.50
2023-04-28T01:01:08.039Z,101607.41
2023-04-28T01:03:38.014Z,101588.00
2023-04-28T01:06:06.237Z,101606.72
2023-04-28T01:08:34.512Z,101609.63
2023-04-28T01:11:01.986Z,101616.25
2023-04-28T01:13:28.953Z,101567.84
2023-04-28T01:15:56.606Z,101609.84
2023-04-28T01:18:23.727Z,101597.16
2023-04-28T01:20:50.221Z,101600.94
2023-04-28T01:23:17.775Z,101599.38
2023-04-28T01:25:44.340Z,101600.53
2023-04-28T01:28:11.745Z,101587.81
2023-04-28T01:30:38.407Z,101594.91
2023-04-28T01:33:04.957Z,101583.84
2023-04-28T01:35:31.484Z,101592.69
2023-04-28T01:37:57.911Z,101590.41
2023-04-28T01:40:24.766Z,101588.78
2023-04-28T01:42:51.479Z,101588.28
2023-04-28T01:45:17.964Z,101589.22
2023-04-28T01:47:44.510Z,101572.34
2023-04-28T01:50:11.534Z,101545.22
2023-04-28T01:52:38.037Z,101577.81
2023-04-28T01:55:04.962Z,101584.03
2023-04-28T01:57:31.742Z,101566.03
2023-04-28T01:59:59.496Z,101577.19
2023-04-28T02:02:26.009Z,101581.63
2023-04-28T02:04:52.680Z,101568.94
2023-04-28T02:07:19.213Z,101558.53
2023-04-28T02:09:46.353Z,101571.50
2023-04-28T02:12:13.166Z,101531.50
2023-04-28T02:14:39.643Z,101561.25
2023-04-28T02:17:06.242Z,101571.13
2023-04-28T02:19:32.694Z,101567.75
2023-04-28T02:21:59.127Z,101554.78
2023-04-28T02:24:25.592Z,101536.28
2023-04-28T02:26:52.012Z,101553.94
2023-04-28T02:29:18.412Z,101524.09
2023-04-28T02:31:48.067Z,101532.69
2023-04-28T02:34:14.848Z,101523.31
2023-04-28T02:36:41.467Z,101549.75
2023-04-28T02:39:07.894Z,101526.72
2023-04-28T02:41:34.650Z,101546.41
2023-04-28T02:44:01.094Z,101546.59
2023-04-28T02:46:27.605Z,101531.06
2023-04-28T02:48:54.040Z,101526.22
2023-04-28T02:51:20.625Z,101528.50
2023-04-28T02:53:47.234Z,101519.13
2023-04-28T02:56:13.890Z,101528.88
2023-04-28T02:58:40.365Z,101519.31
2023-04-28T03:01:07.094Z,101507.28
2023-04-28T03:03:33.746Z,101460.41
2023-04-28T03:06:00.260Z,101517.78
2023-04-28T03:08:26.873Z,101502.09
2023-04-28T03:10:53.332Z,101492.63
2023-04-28T03:13:19.783Z,101497.91
2023-04-28T03:15:46.188Z,101486.06
2023-04-28T03:18:12.651Z,101488.63
2023-04-28T03:20:39.088Z,101483.34
2023-04-28T03:23:05.545Z,101449.25
2023-04-28T03:25:32.074Z,101465.53
2023-04-28T03:27:58.576Z,101484.34
2023-04-28T03:30:24.991Z,101473.88
2023-04-28T03:32:51.717Z,101465.34
2023-04-28T03:35:18.320Z,101471.47
2023-04-28T03:37:44.894Z,101462.03
2023-04-28T03:40:11.792Z,101462.91
2023-04-28T03:42:38.205Z,101462.69
2023-04-28T03:45:04.889Z,101469.75
2023-04-28T03:47:31.292Z,101465.34
2023-04-28T03:49:58.857Z,101468.09
2023-04-28T03:52:26.216Z,101439.53
2023-04-28T03:54:52.616Z,101442.25
2023-04-28T03:57:19.038Z,101456.84
2023-04-28T03:59:45.890Z,101444.56
2023-04-28T04:02:12.301Z,101452.34
2023-04-28T04:04:38.985Z,101408.38
2023-04-28T04:07:06.094Z,101444.34
2023-04-28T04:09:32.567Z,101446.00
2023-04-28T04:11:58.996Z,101440.06
2023-04-28T04:14:25.726Z,101431.13
2023-04-28T04:16:52.177Z,101420.66
2023-04-28T04:19:18.577Z,101434.97
2023-04-28T04:21:45.086Z,101426.28
2023-04-28T04:24:11.856Z,101425.94
2023-04-28T04:26:38.296Z,101430.00
2023-04-28T04:29:04.777Z,101424.56
2023-04-28T04:31:31.722Z,101411.59
2023-04-28T04:33:58.299Z,101416.22
2023-04-28T04:36:24.893Z,101416.03
2023-04-28T04:38:53.257Z,101397.81
2023-04-28T04:41:21.274Z,101419.03
2023-04-28T04:43:47.757Z,101381.13
2023-04-28T04:46:14.852Z,101421.91
2023-04-28T04:48:41.366Z,101384.59
2023-04-28T04:51:07.753Z,101408.06
2023-04-28T04:53:34.275Z,101383.03
2023-04-28T04:56:01.449Z,101408.09
2023-04-28T04:58:28.118Z,101392.94
2023-04-28T05:00:54.708Z,101380.56
2023-04-28T05:03:21.829Z,101387.66
2023-04-28T05:05:48.758Z,101392.44
2023-04-28T05:08:15.220Z,101366.72
2023-04-28T05:10:41.762Z,101386.84
2023-04-28T05:13:08.713Z,101390.00
2023-04-28T05:15:35.204Z,101378.28
2023-04-28T05:18:06.467Z,101332.84
2023-04-28T05:20:32.929Z,101396.50
2023-04-28T05:22:59.339Z,101388.97
2023-04-28T05:25:26.355Z,101393.69
2023-04-28T05:27:52.974Z,101369.94
2023-04-28T05:30:19.500Z,101380.22
2023-04-28T05:32:46.220Z,101376.91
2023-04-28T05:35:12.717Z,101357.03
2023-04-28T05:37:39.788Z,101321.41
2023-04-28T05:40:07.879Z,101368.97
2023-04-28T05:42:34.369Z,101353.72
2023-04-28T05:45:00.973Z,101365.53
2023-04-28T05:47:27.471Z,101350.94
2023-04-28T05:49:53.972Z,101354.25
2023-04-28T05:52:20.360Z,101349.69
2023-04-28T05:54:46.788Z,101347.13
2023-04-28T05:57:14.998Z,101354.56
2023-04-28T05:59:41.465Z,101349.03
2023-04-28T06:02:07.934Z,101336.59
2023-04-28T06:04:34.518Z,101341.19
2023-04-28T06:07:01.308Z,101328.31
2023-04-28T06:09:27.765Z,101342.94
2023-04-28T06:11:54.310Z,101343.25
2023-04-28T06:14:20.792Z,101332.59
2023-04-28T06:16:47.279Z,101313.84
2023-04-28T06:19:14.640Z,101286.03
2023-04-28T06:21:41.307Z,101324.63
2023-04-28T06:24:07.719Z,101325.66
2023-04-28T06:26:34.188Z,101312.97
2023-04-28T06:29:00.698Z,101338.13
2023-04-28T06:31:27.104Z,101342.84
2023-04-28T06:33:53.970Z,101338.72
2023-04-28T06:36:20.579Z,101302.63
2023-04-28T06:38:47.237Z,101335.00
2023-04-28T06:41:13.673Z,101317.50
2023-04-28T06:43:40.146Z,101328.84
2023-04-28T06:46:07.085Z,101319.34
2023-04-28T06:48:33.833Z,101285.31
2023-04-28T06:51:00.467Z,101297.22
2023-04-28T06:53:27.083Z,101311.72
2023-04-28T06:55:53.653Z,101305.59
2023-04-28T06:58:20.801Z,101311.16
2023-04-28T07:00:47.385Z,101326.16
2023-04-28T07:03:13.970Z,101322.13
2023-04-28T07:05:40.577Z,101324.16
2023-04-28T07:08:07.296Z,101319.16
2023-04-28T07:10:33.731Z,101307.06
2023-04-28T07:13:00.248Z,101305.56
2023-04-28T07:15:27.369Z,101307.94
2023-04-28T07:17:53.885Z,101296.38
2023-04-28T07:20:20.487Z,101303.31
2023-04-28T07:22:46.947Z,101301.19
2023-04-28T07:25:16.506Z,101304.81
2023-04-28T07:27:42.945Z,101278.88
2023-04-28T07:30:25.988Z,101288.97
2023-04-28T07:32:55.578Z,101273.59
2023-04-28T07:35:22.635Z,101286.38
2023-04-28T07:37:49.292Z,101267.88
2023-04-28T07:40:15.940Z,101283.44
2023-04-28T07:42:42.521Z,101290.97
2023-04-28T07:45:09.486Z,101275.38
2023-04-28T07:47:36.536Z,101282.81
2023-04-28T07:50:06.272Z,101269.56
2023-04-28T07:52:33.482Z,101285.13
2023-04-28T07:55:00.111Z,101272.72
2023-04-28T07:57:26.837Z,101277.91
2023-04-28T07:59:53.243Z,101272.81
2023-04-28T08:02:20.657Z,101282.03
2023-04-28T08:04:47.361Z,101278.28
2023-04-28T08:07:14.677Z,101226.28
2023-04-28T08:09:44.030Z,101195.53
2023-04-28T08:12:10.758Z,101271.75
2023-04-28T08:14:37.294Z,101242.34
2023-04-28T08:17:03.988Z,101246.94
2023-04-28T08:19:30.823Z,101266.16
2023-04-28T08:21:57.454Z,101258.47
2023-04-28T08:24:23.839Z,101255.66
2023-04-28T08:26:51.102Z,101259.38
2023-04-28T08:29:17.536Z,101256.41
2023-04-28T08:31:44.036Z,101254.44
2023-04-28T08:34:10.867Z,101256.44
2023-04-28T08:36:37.329Z,101246.41
2023-04-28T08:39:05.128Z,101237.97
2023-04-28T08:41:33.080Z,101256.34
2023-04-28T08:43:59.555Z,101245.06
2023-04-28T08:46:27.771Z,101249.94
2023-04-28T08:49:01.076Z,101215.44
2023-04-28T08:51:34.876Z,101242.34
2023-04-28T08:56:36.153Z,101231.91
2023-04-28T08:59:04.609Z,101226.69
2023-04-28T09:01:31.991Z,101238.00
2023-04-28T09:04:02.547Z,101243.00
2023-04-28T09:06:37.278Z,101218.97
2023-04-28T09:09:20.184Z,101235.06
2023-04-28T09:11:53.630Z,101236.41
2023-04-28T09:14:20.022Z,101230.00
2023-04-28T09:16:46.816Z,101207.88
2023-04-28T09:19:13.505Z,101220.34
2023-04-28T09:21:51.292Z,101222.50
2023-04-28T09:24:40.408Z,101215.56
2023-04-28T09:27:22.022Z,101164.16
2023-04-28T09:29:53.977Z,101156.06
2023-04-28T09:32:22.510Z,101171.31
2023-04-28T09:34:56.564Z,101206.13
2023-04-28T09:37:25.925Z,101190.94
2023-04-28T09:39:54.533Z,101206.50
2023-04-28T09:42:40.709Z,101210.59
2023-04-28T09:45:09.686Z,101199.47
2023-04-28T09:47:39.830Z,101176.47
2023-04-28T09:50:09.407Z,101205.50
2023-04-28T09:52:36.684Z,101198.81
2023-04-28T09:55:08.676Z,101189.03
2023-04-28T09:57:36.477Z,101190.25
2023-04-28T10:00:06.756Z,101192.34
2023-04-28T10:05:13.140Z,101160.72
2023-04-28T10:07:41.214Z,101172.66
2023-04-28T10:10:08.803Z,101177.03
2023-04-28T10:12:38.370Z,101131.44
2023-04-28T10:15:06.332Z,101127.78
2023-04-28T10:17:35.091Z,101155.91
2023-04-28T10:20:03.465Z,101155.25
2023-04-28T10:22:57.321Z,101156.38
2023-04-28T10:25:28.128Z,101151.91
2023-04-28T10:27:54.754Z,101149.13
2023-04-28T10:30:28.287Z,101147.63
2023-04-28T10:33:23.084Z,101149.97
2023-04-28T10:35:49.828Z,101138.19
2023-04-28T10:38:18.194Z,101144.69
2023-04-28T11:42:14.116Z,101020.63
2023-04-28T11:44:41.035Z,101069.75
2023-04-28T11:47:07.514Z,101034.63
2023-04-28T11:49:45.436Z,101072.94
2023-04-28T11:52:12.749Z,101018.38
2023-04-28T11:54:42.350Z,101067.84
2023-04-28T11:57:18.058Z,101068.25
2023-04-28T11:59:44.702Z,101035.91
2023-04-28T12:02:11.391Z,101042.75
2023-04-28T12:04:40.542Z,101075.72
2023-04-28T12:07:14.986Z,101055.63
2023-04-28T12:09:49.575Z,101058.75
2023-04-28T12:15:05.214Z,101068.38
2023-04-28T12:17:34.681Z,101045.78
2023-04-28T12:20:04.064Z,101053.91
2023-04-28T12:22:31.423Z,101052.13
2023-04-28T12:25:08.476Z,101043.69
2023-04-28T12:27:39.082Z,100985.31
2023-04-28T12:30:20.879Z,101033.47
2023-04-28T12:32:48.032Z,101027.66
2023-04-28T12:35:14.585Z,101019.88
2023-04-28T12:37:42.536Z,101017.63
2023-04-28T12:40:09.785Z,101026.72
2023-04-28T12:42:36.650Z,101019.09
2023-04-28T12:45:03.377Z,100976.16
2023-04-28T12:47:29.997Z,100976.53
2023-04-28T12:49:56.607Z,101014.81
2023-04-28T12:52:23.230Z,101012.03
2023-04-28T12:54:49.948Z,101007.75
2023-04-28T12:57:18.431Z,101012.69
2023-04-28T12:59:47.122Z,101011.94
2023-04-28T13:02:17.256Z,100985.69
2023-04-28T13:04:46.234Z,101014.94
2023-04-28T13:07:13.430Z,101013.16
2023-04-28T13:09:40.097Z,100996.28
2023-04-28T13:12:07.492Z,100955.91
2023-04-28T13:14:34.441Z,101002.06
2023-04-28T13:17:01.664Z,100962.88
2023-04-28T13:19:29.626Z,100928.75
2023-04-28T13:21:56.218Z,100978.22
2023-04-28T13:24:22.902Z,100985.44
2023-04-28T13:26:49.396Z,100953.41
2023-04-28T13:29:15.937Z,100980.19
2023-04-28T13:31:42.437Z,100919.16
2023-04-28T13:34:12.006Z,100943.44
2023-04-28T13:36:38.583Z,100975.34
2023-04-28T13:39:06.198Z,100933.69
2023-04-28T13:41:32.838Z,100950.66
2023-04-28T13:43:59.398Z,100970.88
2023-04-28T13:46:25.869Z,100956.34
2023-04-28T13:48:52.311Z,100951.44
2023-04-28T13:51:18.796Z,100947.72
2023-04-28T13:53:45.309Z,100913.06
2023-04-28T13:56:12.093Z,100946.41
2023-04-28T13:58:38.985Z,100939.13
2023-04-28T14:01:05.583Z,100955.25
2023-04-28T14:03:32.251Z,100957.97
2023-04-28T14:05:59.456Z,100961.84
2023-04-28T14:08:27.845Z,100925.59
2023-04-28T14:10:54.824Z,100951.44
2023-04-28T14:13:21.413Z,100948.25
2023-04-28T14:15:58.610Z,100887.94
2023-04-28T14:18:26.537Z,100940.91
2023-04-28T14:20:54.409Z,100895.25
2023-04-28T14:23:23.491Z,100955.28
2023-04-28T14:25:50.444Z,100964.78
2023-04-28T14:28:17.257Z,100915.25
2023-04-28T14:30:44.028Z,100952.22
2023-04-28T14:33:10.623Z,100953.75
2023-04-28T14:35:37.480Z,100933.56
2023-04-28T14:38:04.208Z,100942.88
2023-04-28T14:40:30.870Z,100949.88
2023-04-28T14:42:57.760Z,100939.25
2023-04-28T14:45:24.444Z,100934.81
2023-04-28T14:47:51.182Z,100930.34
2023-04-28T14:50:22.196Z,100925.72
2023-04-28T14:52:48.704Z,100920.06
2023-04-28T14:55:15.347Z,100905.19
2023-04-28T14:57:42.088Z,100887.94
2023-04-28T15:00:10.989Z,100925.59
2023-04-28T15:02:37.930Z,100892.09
2023-04-28T15:05:05.030Z,100919.63
2023-04-28T15:07:32.508Z,100903.19
2023-04-28T15:09:59.452Z,100912.78
2023-04-28T15:12:26.285Z,100863.94
2023-04-28T15:14:53.772Z,100903.22
2023-04-28T15:17:21.541Z,100868.81
2023-04-28T15:19:47.998Z,100860.63
2023-04-28T15:22:14.511Z,100899.56
2023-04-28T15:24:43.581Z,100898.56
2023-04-28T15:27:10.205Z,100889.69
2023-04-28T15:29:36.944Z,100862.50
2023-04-28T15:32:03.604Z,100887.50
2023-04-28T15:34:29.998Z,100868.22
2023-04-28T15:36:56.724Z,100885.31
2023-04-28T15:39:25.037Z,100877.75
2023-04-28T15:41:52.860Z,100892.19
2023-04-28T15:44:19.462Z,100868.88
2023-04-28T15:46:46.062Z,100846.69
2023-04-28T15:49:13.188Z,100833.44
2023-04-28T15:51:39.608Z,100859.47
2023-04-28T15:54:06.011Z,100846.38
2023-04-28T15:56:33.531Z,100843.03
2023-04-28T15:58:59.967Z,100849.88
2023-04-28T16:01:26.466Z,100841.34
2023-04-28T16:03:53.076Z,100839.66
2023-04-28T16:06:19.679Z,100836.47
2023-04-28T16:08:46.160Z,100838.16
2023-04-28T16:11:17.663Z,100835.63
2023-04-28T16:13:44.974Z,100794.81
2023-04-28T16:16:12.360Z,100818.00
2023-04-28T16:18:39.095Z,100840.50
2023-04-28T16:21:05.710Z,100797.19
2023-04-28T16:23:32.321Z,100836.97
2023-04-28T16:25:58.728Z,100828.41
2023-04-28T16:28:25.177Z,100831.28
2023-04-28T16:30:51.836Z,100805.75
2023-04-28T16:33:18.333Z,100826.38
2023-04-28T16:35:44.821Z,100799.88
2023-04-28T16:38:12.242Z,100784.13
2023-04-28T16:40:38.999Z,100824.03
2023-04-28T16:43:05.476Z,100836.81
2023-04-28T16:45:31.914Z,100828.22
2023-04-28T16:47:58.377Z,100835.97
2023-04-28T16:50:24.811Z,100834.44
2023-04-28T16:52:51.217Z,100809.97
2023-04-28T16:55:18.756Z,100835.63
2023-04-28T16:58:13.673Z,100846.03
2023-04-28T17:00:40.191Z,100832.09
2023-04-28T17:03:07.012Z,100857.59
2023-04-28T17:05:34.089Z,100860.94
2023-04-28T17:08:00.507Z,100859.91
2023-04-28T17:10:27.022Z,100848.31
2023-04-28T17:12:59.611Z,100848.81
2023-04-28T17:15:27.146Z,100775.44
2023-04-28T17:17:53.758Z,100834.53
2023-04-28T17:20:21.450Z,100842.38
2023-04-28T17:22:49.979Z,100847.72
2023-04-28T17:25:17.057Z,100844.31
2023-04-28T17:27:43.522Z,100831.59
2023-04-28T17:30:14.247Z,100836.25
2023-04-28T17:32:40.928Z,100829.69
2023-04-28T17:35:07.990Z,100824.81
2023-04-28T17:37:37.341Z,100826.16
2023-04-28T17:40:04.636Z,100823.09
2023-04-28T17:42:33.967Z,100823.41
2023-04-28T17:45:00.390Z,100828.06
2023-04-28T17:47:26.945Z,100827.03
2023-04-28T17:49:54.242Z,100845.47
2023-04-28T17:52:20.771Z,100839.22
2023-04-28T17:54:47.261Z,100844.59
2023-04-28T17:57:14.325Z,100832.44
2023-04-28T17:59:42.539Z,100814.03
2023-04-28T18:02:09.963Z,100853.03
2023-04-28T18:04:37.261Z,100858.53
2023-04-28T18:07:03.849Z,100858.00
2023-04-28T18:09:31.657Z,100859.16
2023-04-28T18:11:58.185Z,100860.16
2023-04-28T18:14:24.614Z,100852.75
2023-04-28T18:16:51.292Z,100820.59
2023-04-28T18:19:17.908Z,100863.63
2023-04-28T18:21:44.358Z,100830.69
2023-04-28T18:24:10.717Z,100860.72
2023-04-28T18:26:37.143Z,100857.34
2023-04-28T18:29:03.575Z,100848.63
2023-04-28T18:31:30.250Z,100851.66
2023-04-28T18:33:57.074Z,100832.97
2023-04-28T18:36:23.501Z,100839.41
2023-04-28T18:38:49.902Z,100835.50
2023-04-28T18:41:18.031Z,100811.13
2023-04-28T18:43:44.685Z,100838.03
2023-04-28T18:46:11.220Z,100808.91
2023-04-28T18:48:37.931Z,100832.97
2023-04-28T18:51:05.470Z,100835.97
2023-04-28T18:53:32.427Z,100776.50
2023-04-28T18:55:59.014Z,100833.63
2023-04-28T18:58:25.588Z,100809.91
2023-04-28T19:00:52.824Z,100821.28
2023-04-28T19:03:20.057Z,100830.84
2023-04-28T19:05:46.979Z,100834.69
2023-04-28T19:08:13.740Z,100832.16
2023-04-28T19:10:41.098Z,100836.81
2023-04-28T19:13:07.963Z,100846.03
2023-04-28T19:15:34.987Z,100842.81
2023-04-28T19:18:02.061Z,100841.41
2023-04-28T19:20:28.505Z,100841.38
2023-04-28T19:22:55.011Z,100819.09
2023-04-28T19:25:21.455Z,100858.94
2023-04-28T19:27:48.080Z,100801.22
2023-04-28T19:30:15.107Z,100861.00
2023-04-28T19:32:42.378Z,100877.03
2023-04-28T19:35:09.516Z,100867.81
2023-04-28T19:37:36.304Z,100880.19
2023-04-28T19:40:07.180Z,100852.44
2023-04-28T19:42:35.127Z,100876.28
2023-04-28T19:45:02.672Z,100828.06
2023-04-28T19:47:33.645Z,100817.81
2023-04-28T19:50:00.422Z,100878.53
2023-04-28T19:52:27.872Z,100874.19
2023-04-28T19:54:54.786Z,100875.88
2023-04-28T19:57:21.861Z,100874.19
2023-04-28T19:59:49.648Z,100869.69
2023-04-28T20:02:17.036Z,100865.31
2023-04-28T20:04:43.730Z,100872.50
2023-04-28T20:07:10.603Z,100867.34
2023-04-28T20:09:37.926Z,100868.97
2023-04-28T20:12:06.702Z,100867.34
2023-04-28T20:14:34.208Z,100869.75
2023-04-28T20:17:04.418Z,100873.50
2023-04-28T20:19:31.306Z,100867.63
2023-04-28T20:21:57.831Z,100874.81
2023-04-28T20:24:24.300Z,100863.00
2023-04-28T20:26:51.388Z,100849.44
2023-04-28T20:29:17.855Z,100870.34
2023-04-28T20:31:44.323Z,100876.84
2023-04-28T20:34:10.835Z,100868.97
2023-04-28T20:36:37.924Z,100866.59
2023-04-28T20:39:04.855Z,100876.59
2023-04-28T20:41:31.424Z,100859.44
2023-04-28T20:43:57.808Z,100845.41
2023-04-28T20:46:24.354Z,100877.03
2023-04-28T20:48:53.523Z,100874.66
2023-04-28T20:51:19.986Z,100873.09
2023-04-28T20:53:46.561Z,100877.91
2023-04-28T20:56:12.962Z,100875.38
2023-04-28T20:58:42.525Z,100790.66
2023-04-28T21:01:09.687Z,100878.34
2023-04-28T21:03:36.318Z,100880.16
2023-04-28T21:06:02.835Z,100857.84
2023-04-28T21:08:30.188Z,100861.88
2023-04-28T21:10:56.617Z,100852.66
2023-04-28T21:13:23.026Z,100873.97
2023-04-28T21:15:49.804Z,100860.63
2023-04-28T21:18:16.295Z,100847.59
2023-04-28T21:20:42.700Z,100848.84
2023-04-28T21:23:10.036Z,100856.41
2023-04-28T21:25:36.785Z,100850.22
2023-04-28T21:28:03.380Z,100847.53
2023-04-28T21:30:29.998Z,100847.69
2023-04-28T21:32:56.606Z,100853.03
2023-04-28T21:35:23.051Z,100847.00
2023-04-28T21:37:49.454Z,100846.16
2023-04-28T21:40:17.198Z,100843.66
2023-04-28T21:42:45.439Z,100840.97
2023-04-28T21:45:11.963Z,100776.16
2023-04-28T21:47:38.900Z,100850.13
2023-04-28T21:50:07.069Z,100840.41
2023-04-28T21:52:33.500Z,100836.22
2023-04-28T21:54:59.913Z,100841.69
2023-04-28T21:57:26.395Z,100832.97
2023-04-28T21:59:53.132Z,100827.63
2023-04-28T22:02:19.832Z,100806.75
2023-04-28T22:04:46.836Z,100815.19
2023-04-28T22:07:13.265Z,100809.88
2023-04-28T22:09:39.693Z,100824.28
2023-04-28T22:12:06.089Z,100826.13
2023-04-28T22:14:40.454Z,100797.66
2023-04-28T22:17:07.963Z,100831.06
2023-04-28T22:19:34.688Z,100824.03
2023-04-28T22:22:01.162Z,100827.41
2023-04-28T22:24:27.879Z,100800.22
2023-04-28T22:26:54.863Z,100790.97
2023-04-28T22:29:21.525Z,100831.63
2023-04-28T22:31:48.134Z,100840.22
2023-04-28T22:34:14.660Z,100845.84
2023-04-28T22:36:41.497Z,100854.00
2023-04-28T22:39:08.139Z,100835.34
2023-04-28T22:41:34.523Z,100851.78
2023-04-28T22:44:01.194Z,100849.53
2023-04-28T22:46:28.753Z,100854.75
2023-04-28T22:48:55.558Z,100853.34
2023-04-28T22:51:22.567Z,100851.38
2023-04-28T22:53:49.009Z,100848.69
2023-04-28T22:56:16.000Z,100851.38
2023-04-28T22:58:42.556Z,100831.72
2023-04-28T23:01:09.151Z,100851.78
2023-04-28T23:03:35.982Z,100850.81
2023-04-28T23:06:02.593Z,100846.59
2023-04-28T23:08:29.027Z,100841.25
2023-04-28T23:10:58.914Z,100805.06
2023-04-28T23:13:25.500Z,100850.41
2023-04-28T23:15:52.195Z,100853.38
2023-04-28T23:18:18.826Z,100848.88
2023-04-28T23:20:49.008Z,100858.72
2023-04-28T23:23:16.001Z,100820.81
2023-04-28T23:25:45.447Z,100854.50
2023-04-28T23:28:12.289Z,100845.78
2023-04-28T23:30:38.769Z,100842.03
2023-04-28T23:33:05.297Z,100843.00
2023-04-28T23:35:33.060Z,100853.38
2023-04-28T23:37:59.629Z,100856.06
2023-04-28T23:40:26.862Z,100857.50
2023-04-28T23:42:53.505Z,100864.66
2023-04-28T23:45:19.958Z,100821.44
2023-04-28T23:47:47.192Z,100876.72
2023-04-28T23:50:13.908Z,100874.19
2023-04-28T23:52:40.509Z,100875.88
2023-04-28T23:55:12.762Z,100858.22
2023-04-28T23:57:39.787Z,100864.25
